Time;durP1;ratioP1;P1;durP2;ratioP2;P2;SDS_P1;SDS_P2;PMS_P1;PMS_P2;Temp;Humidity;BMP_temperature;BMP_pressure;BME280_temperature;BME280_humidity;BME280_pressure;Samples;Min_cycle;Max_cycle;Signal;HPM_P1;HPM_P2
2022/08/25 00:00:44;;;;;;;9.65;5.10;;;20.50;99.90;;;;;;5028571;28;20041;-75
2022/08/25 00:03:12;;;;;;;13.20;5.28;;;20.50;99.90;;;;;;5028450;28;20162;-75
2022/08/25 00:05:38;;;;;;;12.02;4.85;;;20.50;99.90;;;;;;5028591;28;20038;-76
2022/08/25 00:08:05;;;;;;;13.93;5.13;;;20.40;99.90;;;;;;5034773;28;20092;-74
2022/08/25 00:10:34;;;;;;;9.10;5.13;;;20.40;99.90;;;;;;5011874;28;20051;-74
2022/08/25 00:13:01;;;;;;;10.63;4.80;;;20.40;99.90;;;;;;5027991;28;20583;-74
2022/08/25 00:15:31;;;;;;;9.30;4.78;;;20.40;99.90;;;;;;5029762;28;20064;-75
2022/08/25 00:17:58;;;;;;;8.77;4.45;;;20.40;99.90;;;;;;5012211;28;20041;-74
2022/08/25 00:20:25;;;;;;;9.13;3.80;;;20.30;99.90;;;;;;5027899;28;20523;-74
2022/08/25 00:22:51;;;;;;;8.68;4.57;;;20.30;99.90;;;;;;5028169;28;20443;-75
2022/08/25 00:25:17;;;;;;;11.38;4.63;;;20.30;99.90;;;;;;5029787;28;20464;-75
2022/08/25 00:27:44;;;;;;;9.20;4.40;;;20.20;99.90;;;;;;5028204;28;20536;-75
2022/08/25 00:30:13;;;;;;;9.07;4.22;;;20.20;99.90;;;;;;4995311;28;20125;-75
2022/08/25 00:32:39;;;;;;;10.30;4.25;;;20.20;99.90;;;;;;5028369;28;20123;-75
2022/08/25 00:35:06;;;;;;;9.50;4.30;;;20.10;99.90;;;;;;5028516;28;20096;-74
2022/08/25 00:37:31;;;;;;;10.35;5.10;;;20.10;99.90;;;;;;5011434;28;20535;-74
2022/08/25 00:39:57;;;;;;;8.90;4.05;;;20.00;99.90;;;;;;4995315;28;20050;-75
2022/08/25 00:42:25;;;;;;;10.10;4.05;;;20.00;99.90;;;;;;4995143;28;20053;-75
2022/08/25 00:44:50;;;;;;;11.05;3.97;;;20.00;99.90;;;;;;5028151;28;20103;-75
2022/08/25 00:47:17;;;;;;;9.68;3.95;;;20.00;99.90;;;;;;5027740;28;20045;-74
2022/08/25 00:49:47;;;;;;;11.00;4.07;;;20.00;99.90;;;;;;5028220;28;20044;-74
2022/08/25 00:52:17;;;;;;;8.85;4.05;;;20.00;99.90;;;;;;5028884;28;20037;-76
2022/08/25 00:54:53;;;;;;;9.48;4.07;;;19.90;99.90;;;;;;5028386;28;20048;-74
2022/08/25 00:57:25;;;;;;;10.00;3.80;;;20.00;99.90;;;;;;5028998;28;20465;-75
2022/08/25 00:59:51;;;;;;;9.27;3.80;;;19.90;99.90;;;;;;5011395;28;20089;-74
2022/08/25 01:02:17;;;;;;;8.70;3.70;;;19.90;99.90;;;;;;5011141;28;20128;-74
2022/08/25 01:04:44;;;;;;;9.95;3.70;;;19.90;99.90;;;;;;5028984;28;20537;-74
2022/08/25 01:07:11;;;;;;;8.85;3.63;;;19.90;99.90;;;;;;5027624;28;20037;-76
2022/08/25 01:09:37;;;;;;;9.63;3.78;;;20.00;99.90;;;;;;5028098;28;20095;-75
2022/08/25 01:12:04;;;;;;;9.27;3.47;;;20.00;99.90;;;;;;4994901;28;20038;-74
2022/08/25 01:14:32;;;;;;;9.27;3.40;;;20.00;99.90;;;;;;5027866;28;20242;-75
2022/08/25 01:16:58;;;;;;;10.70;3.70;;;20.00;99.90;;;;;;5029049;28;20041;-74
2022/08/25 01:19:27;;;;;;;10.55;3.55;;;20.10;99.90;;;;;;5014022;28;20075;-74
2022/08/25 01:21:54;;;;;;;10.55;3.70;;;20.00;99.90;;;;;;5031466;28;20069;-74
2022/08/25 01:24:41;;;;;;;10.10;3.67;;;20.10;99.90;;;;;;4985289;28;20041;-74
2022/08/25 01:27:09;;;;;;;9.55;3.40;;;20.10;99.90;;;;;;5032376;28;20084;-74
2022/08/25 01:29:35;;;;;;;10.93;3.90;;;20.10;99.90;;;;;;5032666;28;20041;-75
2022/08/25 01:32:05;;;;;;;8.25;3.58;;;20.10;99.90;;;;;;5031175;28;20041;-74
2022/08/25 01:34:34;;;;;;;9.88;3.70;;;20.10;99.90;;;;;;5031076;28;20041;-76
2022/08/25 01:37:00;;;;;;;12.95;4.03;;;20.00;99.90;;;;;;5032239;28;20051;-74
2022/08/25 01:39:28;;;;;;;9.63;3.83;;;20.00;99.90;;;;;;5014777;28;20045;-74
2022/08/25 01:42:01;;;;;;;9.27;3.58;;;20.00;99.90;;;;;;5014274;28;20095;-74
2022/08/25 01:44:27;;;;;;;10.93;3.53;;;20.00;99.90;;;;;;5030741;28;20231;-75
2022/08/25 01:46:53;;;;;;;12.20;4.13;;;20.00;99.90;;;;;;5014494;28;20124;-75
2022/08/25 01:49:20;;;;;;;8.82;3.80;;;19.90;99.90;;;;;;5030889;28;20121;-75
2022/08/25 01:52:14;;;;;;;10.40;4.13;;;19.90;99.90;;;;;;5030898;28;20538;-75
2022/08/25 01:54:40;;;;;;;9.23;4.00;;;19.90;99.90;;;;;;4980895;28;20057;-75
2022/08/25 01:57:06;;;;;;;8.73;3.70;;;19.80;99.90;;;;;;5030376;28;20037;-74
2022/08/25 01:59:32;;;;;;;10.23;3.60;;;19.80;99.90;;;;;;5030756;28;20060;-75
2022/08/25 02:01:58;;;;;;;10.20;3.70;;;19.80;99.90;;;;;;5030417;28;20034;-75
2022/08/25 02:04:23;;;;;;;10.15;3.95;;;19.80;99.90;;;;;;5032048;28;20436;-75
2022/08/25 02:06:49;;;;;;;9.32;3.83;;;19.70;99.90;;;;;;4998572;28;20052;-75
2022/08/25 02:09:16;;;;;;;10.02;4.05;;;19.70;99.90;;;;;;4997736;28;20041;-75
2022/08/25 02:11:45;;;;;;;8.25;3.38;;;19.60;99.90;;;;;;5014042;28;20052;-75
2022/08/25 02:14:12;;;;;;;10.27;3.70;;;19.60;99.90;;;;;;5030257;28;20069;-75
2022/08/25 02:16:40;;;;;;;8.40;3.65;;;19.60;99.90;;;;;;5030429;28;20385;-75
2022/08/25 02:19:10;;;;;;;10.82;3.78;;;19.60;99.90;;;;;;5031348;28;20037;-75
2022/08/25 02:21:36;;;;;;;12.00;3.90;;;19.50;99.90;;;;;;5030154;28;20041;-75
2022/08/25 02:24:03;;;;;;;11.82;3.97;;;19.50;99.90;;;;;;5031367;28;20056;-75
2022/08/25 02:26:29;;;;;;;9.50;3.80;;;19.50;99.90;;;;;;5031364;28;20408;-75
2022/08/25 02:28:55;;;;;;;9.85;4.07;;;19.40;99.90;;;;;;5029920;28;20041;-75
2022/08/25 02:31:23;;;;;;;9.25;3.88;;;19.40;99.90;;;;;;5013361;28;20041;-75
2022/08/25 02:33:50;;;;;;;9.73;3.95;;;19.40;99.90;;;;;;5029860;28;20389;-75
2022/08/25 02:36:17;;;;;;;8.80;4.30;;;19.40;99.90;;;;;;5013356;28;20045;-74
2022/08/25 02:38:43;;;;;;;8.35;3.80;;;19.30;99.90;;;;;;5013086;28;20045;-74
2022/08/25 02:41:12;;;;;;;8.48;3.72;;;19.30;99.90;;;;;;5029891;28;20069;-75
2022/08/25 02:43:39;;;;;;;11.13;3.95;;;19.30;99.90;;;;;;5013228;28;20056;-75
2022/08/25 02:46:05;;;;;;;9.88;4.25;;;19.20;99.90;;;;;;5031177;28;20048;-75
2022/08/25 02:48:31;;;;;;;10.27;3.72;;;19.70;99.90;;;;;;5030852;28;20041;-75
2022/08/25 02:50:59;;;;;;;9.75;4.20;;;19.00;99.90;;;;;;5013276;28;20037;-73
2022/08/25 02:53:26;;;;;;;11.40;4.03;;;19.20;99.90;;;;;;5013199;28;20048;-74
2022/08/25 02:55:54;;;;;;;9.40;3.88;;;19.10;99.90;;;;;;5013270;28;20489;-75
2022/08/25 02:58:21;;;;;;;9.07;3.97;;;19.10;99.90;;;;;;5029401;28;20495;-75
2022/08/25 03:00:48;;;;;;;10.38;4.18;;;19.00;99.90;;;;;;5029557;28;20047;-75
2022/08/25 03:03:14;;;;;;;10.05;4.20;;;19.00;99.90;;;;;;5030498;28;20030;-75
2022/08/25 03:05:40;;;;;;;10.30;3.83;;;19.00;99.90;;;;;;5029623;28;20522;-75
2022/08/25 03:08:07;;;;;;;11.77;4.32;;;19.00;99.90;;;;;;5030521;28;20040;-75
2022/08/25 03:10:34;;;;;;;9.13;4.20;;;18.90;99.90;;;;;;5029494;28;20044;-74
2022/08/25 03:13:00;;;;;;;11.00;4.30;;;18.90;99.90;;;;;;5012893;28;20448;-75
2022/08/25 03:15:26;;;;;;;10.98;4.15;;;18.90;99.90;;;;;;5029744;28;20075;-74
2022/08/25 03:17:54;;;;;;;10.93;4.15;;;18.90;99.90;;;;;;5029107;28;20045;-75
2022/08/25 03:20:24;;;;;;;9.73;4.28;;;18.90;99.90;;;;;;5030929;28;20450;-74
2022/08/25 03:22:51;;;;;;;12.23;3.75;;;18.90;99.90;;;;;;5012761;28;20120;-74
2022/08/25 03:28:02;;;;;;;8.57;4.20;;;18.80;99.90;;;;;;5028462;28;20056;-75
2022/08/25 03:30:28;;;;;;;11.20;3.97;;;18.80;99.90;;;;;;5029066;28;20543;-74
2022/08/25 03:32:55;;;;;;;9.65;4.30;;;18.80;99.90;;;;;;5028522;28;20479;-75
2022/08/25 03:35:21;;;;;;;9.25;3.90;;;18.80;99.90;;;;;;5030177;28;20073;-74
2022/08/25 03:37:47;;;;;;;11.00;4.45;;;18.70;99.90;;;;;;5030221;28;20412;-75
2022/08/25 03:40:15;;;;;;;9.95;4.10;;;18.70;99.90;;;;;;5030437;28;20050;-75
2022/08/25 03:42:43;;;;;;;10.27;4.20;;;18.70;99.90;;;;;;5028518;28;20407;-75
2022/08/25 03:45:11;;;;;;;10.68;4.10;;;18.70;99.90;;;;;;5028770;28;20046;-74
2022/08/25 03:47:39;;;;;;;9.25;4.10;;;18.70;99.90;;;;;;5012193;28;20045;-75
2022/08/25 03:50:10;;;;;;;8.80;4.03;;;18.60;99.90;;;;;;5012412;28;20037;-75
2022/08/25 03:52:36;;;;;;;9.27;3.63;;;18.60;99.90;;;;;;5028822;28;20056;-74
2022/08/25 03:55:04;;;;;;;11.93;4.35;;;18.60;99.90;;;;;;5028718;28;20049;-74
2022/08/25 03:57:30;;;;;;;9.27;3.83;;;18.60;99.90;;;;;;5028637;28;20041;-74
2022/08/25 03:59:56;;;;;;;10.85;4.10;;;18.40;99.90;;;;;;5028624;28;20120;-74
2022/08/25 04:02:22;;;;;;;10.80;4.30;;;18.60;99.90;;;;;;5027964;28;20120;-75
2022/08/25 04:04:49;;;;;;;11.85;4.50;;;18.50;99.90;;;;;;4995611;28;20041;-75
2022/08/25 04:07:14;;;;;;;10.73;4.88;;;18.50;99.90;;;;;;5035192;28;20128;-75
2022/08/25 04:09:40;;;;;;;8.52;4.00;;;18.50;99.90;;;;;;5016668;28;20121;-75
2022/08/25 04:12:06;;;;;;;10.45;4.55;;;18.50;99.90;;;;;;4995777;28;20433;-74
2022/08/25 04:14:32;;;;;;;9.48;4.10;;;18.50;99.90;;;;;;5029515;28;20072;-75
2022/08/25 04:16:58;;;;;;;11.02;4.40;;;18.40;99.90;;;;;;5028326;28;20091;-75
2022/08/25 04:19:23;;;;;;;10.57;4.53;;;18.40;99.90;;;;;;5011765;28;20045;-75
2022/08/25 04:21:50;;;;;;;8.77;4.20;;;18.40;99.90;;;;;;5029532;28;20188;-74
2022/08/25 04:24:16;;;;;;;11.23;4.80;;;18.40;99.90;;;;;;5028148;28;20462;-75
2022/08/25 04:26:45;;;;;;;10.40;4.30;;;18.40;99.90;;;;;;5029628;28;20046;-75
2022/08/25 04:29:14;;;;;;;10.32;4.40;;;18.40;99.90;;;;;;5029684;28;20052;-74
2022/08/25 04:31:42;;;;;;;10.77;4.53;;;18.40;99.90;;;;;;5011849;28;20050;-75
2022/08/25 04:34:09;;;;;;;11.15;5.00;;;18.30;99.90;;;;;;5011788;28;20392;-75
2022/08/25 04:36:35;;;;;;;8.90;4.43;;;18.30;99.90;;;;;;5027931;28;20048;-75
2022/08/25 04:39:01;;;;;;;9.20;4.50;;;18.30;99.90;;;;;;5011733;28;20049;-75
2022/08/25 04:41:28;;;;;;;10.25;4.47;;;18.30;99.90;;;;;;4995168;28;20519;-75
2022/08/25 04:43:56;;;;;;;9.80;4.40;;;18.30;99.90;;;;;;5028078;28;20064;-74
2022/08/25 04:46:26;;;;;;;13.15;4.90;;;18.20;99.90;;;;;;5011763;28;20053;-74
2022/08/25 04:48:54;;;;;;;10.07;4.68;;;18.20;99.90;;;;;;5011420;28;20536;-75
2022/08/25 04:51:23;;;;;;;11.48;4.47;;;18.20;99.90;;;;;;5029403;28;20148;-75
2022/08/25 04:53:50;;;;;;;11.95;4.82;;;18.20;99.90;;;;;;5013641;28;20044;-75
2022/08/25 04:56:18;;;;;;;10.57;4.97;;;18.20;99.90;;;;;;5031838;28;20041;-75
2022/08/25 04:58:45;;;;;;;10.73;4.70;;;18.20;99.90;;;;;;5015696;28;20053;-75
2022/08/25 05:01:17;;;;;;;12.60;4.95;;;18.20;99.90;;;;;;5033198;28;20033;-74
2022/08/25 05:03:45;;;;;;;11.87;5.43;;;18.20;99.90;;;;;;5031484;28;20048;-74
2022/08/25 05:06:11;;;;;;;10.30;4.97;;;18.20;99.90;;;;;;5031926;28;20049;-75
2022/08/25 05:08:38;;;;;;;11.38;4.93;;;18.20;99.90;;;;;;4996562;28;20052;-75
2022/08/25 05:11:13;;;;;;;10.07;4.85;;;18.20;99.90;;;;;;5015006;28;20037;-74
2022/08/25 05:13:40;;;;;;;11.43;5.43;;;18.30;99.90;;;;;;5031425;28;20077;-74
2022/08/25 05:16:06;;;;;;;10.82;5.03;;;18.30;99.90;;;;;;5015145;28;20124;-74
2022/08/25 05:18:33;;;;;;;12.75;5.70;;;18.30;99.90;;;;;;4998874;28;20132;-74
2022/08/25 05:21:17;;;;;;;11.20;5.03;;;18.30;99.90;;;;;;5031093;28;20042;-75
2022/08/25 05:23:45;;;;;;;9.98;4.90;;;19.80;99.90;;;;;;5031962;28;20041;-75
2022/08/25 05:26:24;;;;;;;10.98;5.00;;;18.40;99.90;;;;;;5031430;28;20085;-75
2022/08/25 05:28:52;;;;;;;9.52;4.90;;;18.40;99.90;;;;;;5030844;28;20029;-74
2022/08/25 05:31:20;;;;;;;12.20;5.22;;;18.50;99.90;;;;;;5014573;28;20104;-74
2022/08/25 05:33:46;;;;;;;10.50;5.15;;;18.60;99.90;;;;;;5030849;28;20112;-74
2022/08/25 05:36:14;;;;;;;10.40;4.80;;;18.60;99.90;;;;;;5031428;28;20583;-74
2022/08/25 05:38:41;;;;;;;11.85;5.63;;;18.70;99.90;;;;;;5032430;28;20052;-74
2022/08/25 05:41:10;;;;;;;9.63;4.97;;;18.70;99.90;;;;;;5030987;28;20057;-74
2022/08/25 05:43:38;;;;;;;12.77;5.32;;;18.80;99.90;;;;;;5014254;28;20124;-75
2022/08/25 05:46:04;;;;;;;13.88;5.32;;;18.90;99.90;;;;;;5030772;28;20045;-75
2022/08/25 05:48:30;;;;;;;10.23;4.82;;;19.00;99.90;;;;;;5014363;28;20037;-74
2022/08/25 05:50:58;;;;;;;10.68;5.45;;;19.00;99.90;;;;;;5032515;28;20507;-76
2022/08/25 05:53:26;;;;;;;13.18;5.70;;;17.90;99.90;;;;;;5032107;28;20037;-75
2022/08/25 05:55:54;;;;;;;12.82;5.53;;;19.30;99.90;;;;;;5030765;28;20037;-74
2022/08/25 05:58:22;;;;;;;11.98;5.07;;;19.50;99.90;;;;;;5030280;28;20050;-75
2022/08/25 06:00:49;;;;;;;10.82;5.00;;;19.50;99.90;;;;;;5014521;28;20049;-75
2022/08/25 06:03:15;;;;;;;12.55;5.15;;;19.60;99.90;;;;;;5030501;28;20504;-75
2022/08/25 06:05:44;;;;;;;10.93;5.00;;;19.70;99.90;;;;;;5030650;28;20045;-75
2022/08/25 06:08:10;;;;;;;10.90;5.20;;;19.80;99.90;;;;;;5043564;28;20047;-74
2022/08/25 06:10:36;;;;;;;10.07;5.47;;;19.90;99.90;;;;;;5030792;28;20033;-75
2022/08/25 06:13:03;;;;;;;12.40;5.20;;;20.00;99.90;;;;;;5014133;28;20502;-76
2022/08/25 06:15:30;;;;;;;10.88;5.05;;;20.30;99.90;;;;;;5030659;28;20064;-76
2022/08/25 06:18:00;;;;;;;11.63;5.30;;;20.30;99.90;;;;;;5014302;28;20041;-76
2022/08/25 06:20:27;;;;;;;11.07;5.10;;;20.40;99.90;;;;;;5031914;28;20041;-75
2022/08/25 06:22:53;;;;;;;13.70;5.80;;;20.50;99.90;;;;;;5013490;28;20041;-74
2022/08/25 06:25:21;;;;;;;11.80;5.20;;;20.60;99.90;;;;;;5030807;28;20037;-74
2022/08/25 06:27:47;;;;;;;11.02;5.13;;;20.60;99.90;;;;;;5029951;28;20045;-75
2022/08/25 06:30:16;;;;;;;11.20;5.63;;;20.70;99.90;;;;;;5030011;28;20041;-75
2022/08/25 06:32:43;;;;;;;12.80;5.65;;;20.90;99.90;;;;;;5031090;28;20653;-75
2022/08/25 06:35:13;;;;;;;9.57;4.90;;;20.90;99.90;;;;;;5031492;28;20033;-75
2022/08/25 06:37:40;;;;;;;12.05;5.20;;;21.00;99.90;;;;;;5013597;28;20064;-74
2022/08/25 06:40:07;;;;;;;12.32;5.68;;;21.20;99.90;;;;;;5013637;28;20045;-75
2022/08/25 06:42:33;;;;;;;11.52;5.57;;;21.30;99.90;;;;;;5029753;28;20066;-75
2022/08/25 06:45:00;;;;;;;10.32;4.95;;;21.30;99.90;;;;;;5031396;28;20059;-75
2022/08/25 06:47:26;;;;;;;9.50;5.00;;;21.40;99.90;;;;;;5012902;28;20364;-75
2022/08/25 06:49:52;;;;;;;12.30;5.63;;;21.50;99.90;;;;;;5029772;28;20041;-75
2022/08/25 06:52:18;;;;;;;11.18;5.35;;;21.60;99.90;;;;;;5029620;28;20044;-75
2022/08/25 06:54:44;;;;;;;12.05;5.35;;;21.70;99.90;;;;;;5013544;28;20038;-75
2022/08/25 06:57:10;;;;;;;11.43;5.30;;;21.80;99.90;;;;;;5012849;28;20049;-75
2022/08/25 06:59:37;;;;;;;13.23;5.28;;;21.90;99.90;;;;;;5031312;28;20064;-74
2022/08/25 07:02:04;;;;;;;11.75;5.18;;;22.00;99.90;;;;;;4996506;28;20187;-74
2022/08/25 07:04:31;;;;;;;11.93;4.97;;;22.10;99.90;;;;;;5012873;28;20569;-74
2022/08/25 07:06:56;;;;;;;10.98;4.90;;;22.20;99.90;;;;;;5034248;28;20283;-74
2022/08/25 07:09:22;;;;;;;13.13;5.10;;;22.30;99.90;;;;;;4985564;28;20284;-75
2022/08/25 07:11:48;;;;;;;12.93;5.13;;;22.50;99.90;;;;;;5013144;28;20046;-75
2022/08/25 07:14:16;;;;;;;10.10;4.93;;;22.60;99.90;;;;;;4996636;28;20073;-75
2022/08/25 07:16:42;;;;;;;10.63;5.00;;;22.80;99.90;;;;;;5012769;28;20404;-75
2022/08/25 07:19:08;;;;;;;10.27;4.55;;;22.70;99.90;;;;;;5012547;28;20045;-75
2022/08/25 07:21:37;;;;;;;9.88;4.65;;;22.80;99.90;;;;;;5013104;28;20038;-75
2022/08/25 07:24:12;;;;;;;11.02;5.40;;;23.00;99.90;;;;;;5029149;28;20563;-75
2022/08/25 07:26:41;;;;;;;9.95;5.07;;;23.00;99.90;;;;;;5029377;28;20428;-75
2022/08/25 07:29:13;;;;;;;10.95;5.50;;;23.10;99.90;;;;;;5012206;28;20045;-74
2022/08/25 07:31:40;;;;;;;12.90;5.00;;;23.10;99.90;;;;;;5029259;28;20580;-74
2022/08/25 07:36:51;;;;;;;11.40;4.85;;;23.30;99.90;;;;;;5030286;28;20424;-75
2022/08/25 07:39:17;;;;;;;10.68;4.88;;;23.50;99.90;;;;;;5030229;28;20106;-75
2022/08/25 07:41:43;;;;;;;10.75;4.70;;;23.50;99.90;;;;;;5012251;28;20057;-75
2022/08/25 07:44:11;;;;;;;12.63;4.35;;;23.50;99.90;;;;;;4995903;28;20053;-75
2022/08/25 07:46:37;;;;;;;20.27;4.47;;;23.70;99.90;;;;;;5028667;28;20168;-75
2022/08/25 07:49:04;;;;;;;9.95;4.50;;;23.80;99.90;;;;;;5029776;28;20506;-75
2022/08/25 07:51:30;;;;;;;10.68;4.38;;;24.00;99.90;;;;;;5012258;28;20539;-75
2022/08/25 07:53:56;;;;;;;8.93;4.25;;;24.00;99.90;;;;;;5029564;28;20128;-74
2022/08/25 07:56:22;;;;;;;8.52;3.97;;;24.00;99.90;;;;;;5012513;28;20124;-75
2022/08/25 07:58:48;;;;;;;12.35;4.15;;;24.10;99.90;;;;;;5028401;28;20060;-75
2022/08/25 08:01:20;;;;;;;10.88;3.75;;;24.20;99.90;;;;;;5012179;28;20041;-75
2022/08/25 08:03:46;;;;;;;10.98;4.00;;;24.30;99.90;;;;;;5028627;28;20068;-75
2022/08/25 08:06:15;;;;;;;9.27;3.97;;;24.30;99.90;;;;;;5011840;28;20041;-75
2022/08/25 08:08:44;;;;;;;8.93;4.00;;;24.40;99.90;;;;;;5034830;28;20244;-74
2022/08/25 08:11:25;;;;;;;11.05;3.80;;;24.50;99.90;;;;;;5028688;28;20038;-75
2022/08/25 08:13:53;;;;;;;12.15;4.00;;;24.70;99.90;;;;;;5028009;28;20042;-76
2022/08/25 08:16:20;;;;;;;10.07;3.72;;;24.70;99.90;;;;;;5011989;28;20626;-75
2022/08/25 08:18:46;;;;;;;9.65;3.55;;;24.80;99.90;;;;;;5011509;28;20168;-75
2022/08/25 08:21:22;;;;;;;9.90;4.45;;;24.90;99.90;;;;;;5011112;28;20416;-76
2022/08/25 08:23:49;;;;;;;8.20;3.63;;;25.10;99.90;;;;;;5028226;28;20133;-75
2022/08/25 08:26:16;;;;;;;10.10;4.13;;;25.00;99.90;;;;;;5011469;28;20049;-75
2022/08/25 08:28:42;;;;;;;10.93;3.92;;;25.20;99.90;;;;;;5013923;28;20048;-75
2022/08/25 08:31:08;;;;;;;13.65;4.40;;;25.20;99.90;;;;;;5032598;28;20408;-75
2022/08/25 08:33:34;;;;;;;10.68;4.40;;;25.30;99.90;;;;;;4999474;28;20040;-75
2022/08/25 08:36:07;;;;;;;9.93;4.20;;;25.30;99.90;;;;;;5015949;28;20095;-75
2022/08/25 08:38:38;;;;;;;10.35;4.00;;;25.50;99.90;;;;;;5033361;28;20519;-76
2022/08/25 08:44:01;;;;;;;9.45;4.07;;;25.60;99.90;;;;;;5032119;28;20052;-76
2022/08/25 08:46:48;;;;;;;9.73;4.03;;;25.70;99.90;;;;;;5033247;28;20046;-75
2022/08/25 08:49:43;;;;;;;10.68;3.70;;;25.80;99.90;;;;;;5019281;28;20044;-75
2022/08/25 08:52:13;;;;;;;9.85;3.92;;;25.90;99.90;;;;;;5014508;28;20056;-74
2022/08/25 08:54:43;;;;;;;10.23;4.40;;;26.00;99.90;;;;;;5032080;28;20048;-75
2022/08/25 08:57:15;;;;;;;12.15;3.95;;;26.10;99.90;;;;;;5033074;28;20047;-75
2022/08/25 08:59:52;;;;;;;13.20;3.95;;;26.20;99.90;;;;;;5032477;28;20052;-76
2022/08/25 09:02:33;;;;;;;8.93;3.53;;;26.20;99.90;;;;;;5014937;28;20045;-76
2022/08/25 09:05:11;;;;;;;9.45;3.55;;;26.30;99.90;;;;;;5015208;28;20045;-75
2022/08/25 09:07:59;;;;;;;9.48;4.00;;;26.40;99.90;;;;;;5032828;28;20580;-76
2022/08/25 09:10:34;;;;;;;11.90;3.95;;;27.20;99.90;;;;;;5033204;28;20076;-76
2022/08/25 09:13:10;;;;;;;10.60;4.13;;;26.60;99.90;;;;;;5014828;28;20041;-76
2022/08/25 09:18:53;;;;;;;8.02;3.50;;;26.70;99.90;;;;;;5031200;28;20049;-75
2022/08/25 09:21:51;;;;;;;9.32;3.60;;;26.80;99.90;;;;;;5031240;28;20049;-75
2022/08/25 09:24:35;;;;;;;10.57;3.33;;;26.90;99.90;;;;;;5023150;28;20037;-75
2022/08/25 09:27:43;;;;;;;8.68;3.25;;;27.00;99.90;;;;;;5014799;28;20204;-76
2022/08/25 09:30:15;;;;;;;9.23;3.38;;;27.10;99.90;;;;;;5016524;28;20549;-76
2022/08/25 09:32:45;;;;;;;9.65;3.20;;;27.10;99.90;;;;;;5031191;28;20134;-75
2022/08/25 09:35:23;;;;;;;10.25;3.78;;;27.10;99.90;;;;;;5031389;28;20073;-76
2022/08/25 09:38:01;;;;;;;9.05;3.50;;;27.30;99.90;;;;;;5032571;28;20045;-75
2022/08/25 09:40:30;;;;;;;9.05;3.30;;;27.30;99.90;;;;;;5002475;28;20303;-74
2022/08/25 09:42:58;;;;;;;10.48;3.45;;;27.80;99.90;;;;;;5030553;28;20088;-76
2022/08/25 09:45:42;;;;;;;9.20;3.42;;;27.50;99.90;;;;;;5032422;28;20041;-75
2022/08/25 09:48:26;;;;;;;8.70;3.35;;;27.50;99.90;;;;;;5030754;28;20077;-75
2022/08/25 09:50:58;;;;;;;11.70;3.45;;;27.60;99.90;;;;;;5031465;28;20468;-75
2022/08/25 09:53:25;;;;;;;;;;;27.60;99.90;;;;;;5031473;28;20129;-76
2022/08/25 09:56:06;;;;;;;8.73;3.53;;;27.70;99.90;;;;;;5031957;28;20431;-76
2022/08/25 09:58:35;;;;;;;8.00;3.22;;;27.80;99.90;;;;;;5032195;28;20103;-75
2022/08/25 10:01:14;;;;;;;7.47;2.90;;;27.90;99.90;;;;;;5031951;28;20069;-76
2022/08/25 10:03:58;;;;;;;9.30;3.08;;;27.90;99.90;;;;;;5014103;28;20045;-75
2022/08/25 10:06:26;;;;;;;10.05;2.97;;;28.00;99.90;;;;;;5030574;28;20041;-76
2022/08/25 10:08:58;;;;;;;9.13;2.80;;;28.00;99.90;;;;;;5024135;28;20142;-76
2022/08/25 10:11:36;;;;;;;9.80;2.97;;;28.00;99.90;;;;;;5032026;28;20041;-75
2022/08/25 10:14:23;;;;;;;11.07;2.60;;;28.20;99.90;;;;;;5030932;28;20045;-75
2022/08/25 10:16:49;;;;;;;9.68;2.75;;;28.10;99.90;;;;;;5030638;28;20053;-75
2022/08/25 10:19:25;;;;;;;9.50;3.10;;;28.10;99.90;;;;;;4997915;28;20056;-76
2022/08/25 10:22:21;;;;;;;11.40;3.03;;;28.20;99.90;;;;;;5014285;28;20522;-76
2022/08/25 10:24:48;;;;;;;7.35;2.72;;;28.20;99.90;;;;;;5016995;28;20068;-75
2022/08/25 10:27:40;;;;;;;8.10;2.70;;;28.10;99.90;;;;;;5030974;28;20045;-75
2022/08/25 10:30:24;;;;;;;;;;;28.30;99.90;;;;;;5052153;28;20116;-75
2022/08/25 10:33:32;;;;;;;7.70;2.83;;;28.50;99.90;;;;;;5031166;28;19921;-75
2022/08/25 10:36:02;;;;;;;7.95;3.20;;;28.40;99.90;;;;;;5031752;28;20041;-76
2022/08/25 10:38:38;;;;;;;9.90;3.10;;;28.70;99.90;;;;;;5013193;28;20045;-76
2022/08/25 10:41:10;;;;;;;9.43;2.70;;;28.50;99.90;;;;;;5029993;28;20045;-76
2022/08/25 10:43:41;;;;;;;9.40;2.78;;;28.50;99.90;;;;;;5013468;28;20045;-76
2022/08/25 10:46:19;;;;;;;9.70;2.90;;;28.60;99.90;;;;;;5030825;28;20042;-75
2022/08/25 10:49:01;;;;;;;8.38;3.20;;;28.50;99.90;;;;;;5029782;28;20347;-76
2022/08/25 10:51:49;;;;;;;7.35;2.60;;;28.30;99.90;;;;;;5030547;28;20041;-78
2022/08/25 10:54:51;;;;;;;10.15;2.80;;;28.60;99.90;;;;;;5029656;28;20049;-75
2022/08/25 10:57:38;;;;;;;8.45;2.75;;;28.70;99.90;;;;;;5029243;28;20079;-76
2022/08/25 11:00:22;;;;;;;9.65;3.40;;;28.70;99.90;;;;;;5013478;28;20045;-75
2022/08/25 11:02:54;;;;;;;7.95;3.10;;;28.80;99.90;;;;;;4996640;28;20049;-76
2022/08/25 11:05:44;;;;;;;9.07;2.95;;;28.80;99.90;;;;;;5029803;28;20416;-76
2022/08/25 11:08:35;;;;;;;9.15;2.85;;;28.80;99.90;;;;;;5036206;28;20041;-75
2022/08/25 11:11:10;;;;;;;8.82;3.10;;;28.80;99.90;;;;;;5030980;28;20045;-74
2022/08/25 11:13:42;;;;;;;8.30;3.00;;;28.90;99.90;;;;;;5012820;28;20076;-76
2022/08/25 11:16:37;;;;;;;9.68;3.35;;;28.90;99.90;;;;;;5012960;28;20191;-76
2022/08/25 11:19:09;;;;;;;8.40;3.40;;;28.80;99.90;;;;;;5030585;28;20041;-77
2022/08/25 11:21:52;;;;;;;9.53;3.03;;;29.00;99.90;;;;;;5012935;28;20145;-76
2022/08/25 11:24:21;;;;;;;9.70;3.22;;;29.00;99.90;;;;;;5013185;28;20434;-76
2022/08/25 11:26:55;;;;;;;7.95;2.80;;;29.10;99.90;;;;;;5029276;28;20068;-76
2022/08/25 11:29:24;;;;;;;6.80;2.65;;;29.10;99.90;;;;;;5027686;28;20033;-76
2022/08/25 11:31:52;;;;;;;8.18;2.83;;;28.70;99.90;;;;;;5029305;28;20041;-76
2022/08/25 11:34:18;;;;;;;9.38;3.10;;;29.30;99.90;;;;;;5012600;28;20504;-76
2022/08/25 11:36:52;;;;;;;8.07;3.10;;;29.40;99.90;;;;;;5012794;28;20080;-77
2022/08/25 11:40:02;;;;;;;7.63;2.90;;;29.40;99.90;;;;;;5029043;28;20700;-76
2022/08/25 11:42:27;;;;;;;12.25;3.15;;;29.50;99.90;;;;;;5028917;28;20111;-76
2022/08/25 11:45:31;;;;;;;8.15;3.03;;;29.50;99.90;;;;;;5030553;28;20061;-76
2022/08/25 11:47:59;;;;;;;8.90;2.95;;;29.60;99.90;;;;;;5028529;28;20050;-75
2022/08/25 11:50:31;;;;;;;9.05;3.28;;;29.60;99.90;;;;;;5028683;28;20038;-75
2022/08/25 11:53:08;;;;;;;10.93;3.10;;;29.90;99.90;;;;;;5030107;28;20045;-75
2022/08/25 11:55:37;;;;;;;9.27;2.90;;;29.70;99.90;;;;;;5029054;28;20057;-76
2022/08/25 11:58:27;;;;;;;11.45;2.90;;;29.70;99.90;;;;;;5030238;28;20132;-75
2022/08/25 12:00:54;;;;;;;7.95;2.72;;;29.70;99.90;;;;;;5012248;28;20052;-76
2022/08/25 12:03:35;;;;;;;6.95;2.75;;;29.80;99.90;;;;;;5028446;28;20396;-76
2022/08/25 12:06:22;;;;;;;6.60;2.58;;;29.80;99.90;;;;;;5012130;28;20106;-75
2022/08/25 12:08:59;;;;;;;7.55;2.80;;;29.80;99.90;;;;;;5028532;28;20121;-75
2022/08/25 12:11:38;;;;;;;8.32;2.78;;;29.80;99.90;;;;;;5012094;28;20461;-76
2022/08/25 12:14:16;;;;;;;7.07;2.60;;;29.70;99.90;;;;;;5011617;28;20487;-76
2022/08/25 12:17:03;;;;;;;10.27;3.08;;;29.80;99.90;;;;;;5030196;28;20033;-77
2022/08/25 12:19:48;;;;;;;7.03;2.63;;;29.80;99.90;;;;;;5028219;28;20087;-76
2022/08/25 12:22:14;;;;;;;7.95;2.80;;;29.80;99.90;;;;;;5028121;28;20056;-76
2022/08/25 12:24:43;;;;;;;7.30;2.88;;;29.80;99.90;;;;;;5011951;28;20049;-76
2022/08/25 12:27:30;;;;;;;8.15;2.72;;;30.10;99.90;;;;;;5028372;28;20038;-76
2022/08/25 12:30:02;;;;;;;7.03;2.50;;;30.00;99.90;;;;;;5029620;28;20038;-76
2022/08/25 12:32:39;;;;;;;9.20;2.65;;;30.10;99.90;;;;;;5027954;28;20127;-75
2022/08/25 12:35:16;;;;;;;7.38;2.85;;;30.10;99.90;;;;;;5029722;28;20034;-76
2022/08/25 12:38:03;;;;;;;10.15;2.90;;;31.30;99.90;;;;;;5011684;28;20049;-76
2022/08/25 12:40:34;;;;;;;8.68;2.95;;;30.10;99.90;;;;;;5028022;28;20042;-76
2022/08/25 12:43:08;;;;;;;7.38;3.00;;;30.20;99.80;;;;;;5028959;28;20058;-76
2022/08/25 12:45:38;;;;;;;8.65;2.70;;;30.10;99.90;;;;;;5028111;28;20110;-75
2022/08/25 12:48:26;;;;;;;7.82;2.72;;;30.30;99.90;;;;;;5028049;28;20037;-75
2022/08/25 12:50:59;;;;;;;7.60;2.70;;;30.30;99.60;;;;;;5000857;28;20578;-76
2022/08/25 12:53:38;;;;;;;8.13;2.95;;;30.30;99.40;;;;;;5027719;28;20080;-76
2022/08/25 12:56:06;;;;;;;9.57;2.80;;;28.40;98.50;;;;;;5012074;28;20037;-76
2022/08/25 12:58:49;;;;;;;8.15;2.80;;;30.40;99.20;;;;;;5027615;28;20192;-76
2022/08/25 13:01:33;;;;;;;8.48;2.90;;;30.30;98.60;;;;;;5011266;28;20118;-76
2022/08/25 13:04:33;;;;;;;7.93;3.00;;;30.40;99.10;;;;;;5028069;28;20238;-76
2022/08/25 13:07:48;;;;;;;7.03;2.75;;;30.40;98.90;;;;;;5033218;28;20271;-76
2022/08/25 13:10:45;;;;;;;8.50;2.60;;;30.40;98.80;;;;;;5008135;28;20061;-75
2022/08/25 13:13:22;;;;;;;7.75;2.80;;;30.40;98.50;;;;;;5010234;28;20566;-75
2022/08/25 13:16:08;;;;;;;8.30;3.10;;;30.30;98.60;;;;;;5032740;28;20037;-77